sensor_id;sensor_type;location;lat;lon;timestamp;temperature;humidity
43627;DHT22;29217;52.586;13.442;2023-09-19T00:00:19;18.30;99.90
43627;DHT22;29217;52.586;13.442;2023-09-19T00:02:55;18.30;99.90
43627;DHT22;29217;52.586;13.442;2023-09-19T00:05:25;18.20;99.90
43627;DHT22;29217;52.586;13.442;2023-09-19T00:07:54;18.20;99.90
43627;DHT22;29217;52.586;13.442;2023-09-19T00:10:22;18.20;99.90
43627;DHT22;29217;52.586;13.442;2023-09-19T00:12:50;18.30;99.90
43627;DHT22;29217;52.586;13.442;2023-09-19T00:15:17;18.20;99.90
43627;DHT22;29217;52.586;13.442;2023-09-19T00:17:43;18.20;99.90
43627;DHT22;29217;52.586;13.442;2023-09-19T00:20:09;18.20;99.90
43627;DHT22;29217;52.586;13.442;2023-09-19T00:22:41;18.10;99.90
43627;DHT22;29217;52.586;13.442;2023-09-19T00:25:11;18.10;99.90
43627;DHT22;29217;52.586;13.442;2023-09-19T00:27:40;18.10;99.90
43627;DHT22;29217;52.586;13.442;2023-09-19T00:30:07;18.10;99.90
43627;DHT22;29217;52.586;13.442;2023-09-19T00:32:34;18.10;99.90
43627;DHT22;29217;52.586;13.442;2023-09-19T00:35:00;18.10;99.90
43627;DHT22;29217;52.586;13.442;2023-09-19T00:37:25;18.10;99.90
43627;DHT22;29217;52.586;13.442;2023-09-19T00:39:51;18.10;99.90
43627;DHT22;29217;52.586;13.442;2023-09-19T00:42:20;18.10;99.90
43627;DHT22;29217;52.586;13.442;2023-09-19T00:44:49;18.10;99.90
43627;DHT22;29217;52.586;13.442;2023-09-19T00:47:19;18.10;99.90
43627;DHT22;29217;52.586;13.442;2023-09-19T00:49:45;18.10;99.90
43627;DHT22;29217;52.586;13.442;2023-09-19T00:52:18;18.00;99.90
43627;DHT22;29217;52.586;13.442;2023-09-19T00:54:47;18.00;99.90
43627;DHT22;29217;52.586;13.442;2023-09-19T00:57:14;18.00;99.90
43627;DHT22;29217;52.586;13.442;2023-09-19T00:59:41;18.00;99.90
43627;DHT22;29217;52.586;13.442;2023-09-19T01:02:07;18.10;99.90
43627;DHT22;29217;52.586;13.442;2023-09-19T01:04:34;18.00;99.90
43627;DHT22;29217;52.586;13.442;2023-09-19T01:06:59;18.00;99.90
43627;DHT22;29217;52.586;13.442;2023-09-19T01:09:25;18.00;99.90
43627;DHT22;29217;52.586;13.442;2023-09-19T01:11:53;18.00;99.90
43627;DHT22;29217;52.586;13.442;2023-09-19T01:14:34;18.00;99.90
43627;DHT22;29217;52.586;13.442;2023-09-19T01:17:05;18.00;99.90
43627;DHT22;29217;52.586;13.442;2023-09-19T01:28:28;17.90;99.90
43627;DHT22;29217;52.586;13.442;2023-09-19T01:30:59;17.90;99.90
43627;DHT22;29217;52.586;13.442;2023-09-19T01:33:27;17.90;99.90
43627;DHT22;29217;52.586;13.442;2023-09-19T01:35:52;17.90;99.90
43627;DHT22;29217;52.586;13.442;2023-09-19T01:38:23;18.00;99.90
43627;DHT22;29217;52.586;13.442;2023-09-19T01:41:03;18.00;99.90
43627;DHT22;29217;52.586;13.442;2023-09-19T01:43:37;18.00;99.90
43627;DHT22;29217;52.586;13.442;2023-09-19T01:48:35;18.00;99.90
43627;DHT22;29217;52.586;13.442;2023-09-19T01:51:09;18.00;99.90
43627;DHT22;29217;52.586;13.442;2023-09-19T01:53:59;18.00;99.90
43627;DHT22;29217;52.586;13.442;2023-09-19T01:56:38;18.10;99.90
43627;DHT22;29217;52.586;13.442;2023-09-19T01:59:21;18.10;99.90
43627;DHT22;29217;52.586;13.442;2023-09-19T02:01:49;18.00;99.90
43627;DHT22;29217;52.586;13.442;2023-09-19T02:04:17;18.00;99.90
43627;DHT22;29217;52.586;13.442;2023-09-19T02:06:43;18.00;99.90
43627;DHT22;29217;52.586;13.442;2023-09-19T02:09:08;17.90;99.90
43627;DHT22;29217;52.586;13.442;2023-09-19T02:11:35;17.90;99.90
43627;DHT22;29217;52.586;13.442;2023-09-19T02:14:02;17.90;99.90
43627;DHT22;29217;52.586;13.442;2023-09-19T02:16:28;17.90;99.90
43627;DHT22;29217;52.586;13.442;2023-09-19T02:18:54;17.90;99.90
43627;DHT22;29217;52.586;13.442;2023-09-19T02:21:19;17.90;99.90
43627;DHT22;29217;52.586;13.442;2023-09-19T02:23:47;17.80;99.90
43627;DHT22;29217;52.586;13.442;2023-09-19T02:26:13;17.80;99.90
43627;DHT22;29217;52.586;13.442;2023-09-19T02:28:39;17.80;99.90
43627;DHT22;29217;52.586;13.442;2023-09-19T02:31:05;17.70;99.90
43627;DHT22;29217;52.586;13.442;2023-09-19T02:33:31;17.70;99.90
43627;DHT22;29217;52.586;13.442;2023-09-19T02:35:58;17.80;99.90
43627;DHT22;29217;52.586;13.442;2023-09-19T02:38:25;17.70;99.90
43627;DHT22;29217;52.586;13.442;2023-09-19T02:40:52;17.60;99.90
43627;DHT22;29217;52.586;13.442;2023-09-19T02:43:18;17.70;99.90
43627;DHT22;29217;52.586;13.442;2023-09-19T02:45:45;17.60;99.90
43627;DHT22;29217;52.586;13.442;2023-09-19T02:48:12;17.60;99.90
43627;DHT22;29217;52.586;13.442;2023-09-19T02:50:38;17.60;99.90
43627;DHT22;29217;52.586;13.442;2023-09-19T02:53:05;17.60;99.90
43627;DHT22;29217;52.586;13.442;2023-09-19T02:55:32;17.60;99.90
43627;DHT22;29217;52.586;13.442;2023-09-19T02:57:58;17.50;99.90
43627;DHT22;29217;52.586;13.442;2023-09-19T03:00:24;17.50;99.90
43627;DHT22;29217;52.586;13.442;2023-09-19T03:02:50;17.50;99.90
43627;DHT22;29217;52.586;13.442;2023-09-19T03:05:17;17.50;99.90
43627;DHT22;29217;52.586;13.442;2023-09-19T03:07:43;17.50;99.90
43627;DHT22;29217;52.586;13.442;2023-09-19T03:10:11;17.50;99.90
43627;DHT22;29217;52.586;13.442;2023-09-19T03:12:37;17.50;99.90
43627;DHT22;29217;52.586;13.442;2023-09-19T03:15:03;17.50;99.90
43627;DHT22;29217;52.586;13.442;2023-09-19T03:17:34;17.50;99.90
43627;DHT22;29217;52.586;13.442;2023-09-19T03:19:59;17.50;99.90
43627;DHT22;29217;52.586;13.442;2023-09-19T03:22:29;17.40;99.90
43627;DHT22;29217;52.586;13.442;2023-09-19T03:25:04;17.50;99.90
43627;DHT22;29217;52.586;13.442;2023-09-19T03:27:34;17.40;99.90
43627;DHT22;29217;52.586;13.442;2023-09-19T03:30:00;17.50;99.90
43627;DHT22;29217;52.586;13.442;2023-09-19T03:32:26;17.50;99.90
43627;DHT22;29217;52.586;13.442;2023-09-19T03:34:52;17.50;99.90
43627;DHT22;29217;52.586;13.442;2023-09-19T03:37:17;17.50;99.90
43627;DHT22;29217;52.586;13.442;2023-09-19T03:39:43;17.60;99.90
43627;DHT22;29217;52.586;13.442;2023-09-19T03:42:09;17.60;99.90
43627;DHT22;29217;52.586;13.442;2023-09-19T03:44:35;17.60;99.90
43627;DHT22;29217;52.586;13.442;2023-09-19T03:47:00;17.60;99.90
43627;DHT22;29217;52.586;13.442;2023-09-19T03:49:26;17.60;99.90
43627;DHT22;29217;52.586;13.442;2023-09-19T03:51:51;17.60;99.90
43627;DHT22;29217;52.586;13.442;2023-09-19T03:54:17;17.50;99.90
43627;DHT22;29217;52.586;13.442;2023-09-19T03:56:44;17.50;99.90
43627;DHT22;29217;52.586;13.442;2023-09-19T03:59:10;17.50;99.90
43627;DHT22;29217;52.586;13.442;2023-09-19T04:01:37;17.50;99.90
43627;DHT22;29217;52.586;13.442;2023-09-19T04:04:03;17.40;99.90
43627;DHT22;29217;52.586;13.442;2023-09-19T04:06:36;17.40;99.90
43627;DHT22;29217;52.586;13.442;2023-09-19T04:09:03;17.40;99.90
43627;DHT22;29217;52.586;13.442;2023-09-19T04:11:31;17.40;99.90
43627;DHT22;29217;52.586;13.442;2023-09-19T04:13:58;17.40;99.90
43627;DHT22;29217;52.586;13.442;2023-09-19T04:16:24;17.30;99.90
43627;DHT22;29217;52.586;13.442;2023-09-19T04:18:50;17.30;99.90
43627;DHT22;29217;52.586;13.442;2023-09-19T04:21:15;17.20;99.90
43627;DHT22;29217;52.586;13.442;2023-09-19T04:23:41;17.20;99.90
43627;DHT22;29217;52.586;13.442;2023-09-19T04:26:08;17.20;99.90
43627;DHT22;29217;52.586;13.442;2023-09-19T04:28:33;17.20;99.90
43627;DHT22;29217;52.586;13.442;2023-09-19T04:31:00;17.10;99.90
43627;DHT22;29217;52.586;13.442;2023-09-19T04:33:26;17.10;99.90
43627;DHT22;29217;52.586;13.442;2023-09-19T04:35:54;17.10;99.90
43627;DHT22;29217;52.586;13.442;2023-09-19T04:38:20;17.10;99.90
43627;DHT22;29217;52.586;13.442;2023-09-19T04:40:46;17.00;99.90
43627;DHT22;29217;52.586;13.442;2023-09-19T04:43:12;17.00;99.90
43627;DHT22;29217;52.586;13.442;2023-09-19T04:45:39;17.00;99.90
43627;DHT22;29217;52.586;13.442;2023-09-19T04:48:05;17.00;99.90
43627;DHT22;29217;52.586;13.442;2023-09-19T04:50:34;17.00;99.90
43627;DHT22;29217;52.586;13.442;2023-09-19T04:53:00;16.90;99.90
43627;DHT22;29217;52.586;13.442;2023-09-19T04:55:26;16.90;99.90
43627;DHT22;29217;52.586;13.442;2023-09-19T04:57:52;16.90;99.90
43627;DHT22;29217;52.586;13.442;2023-09-19T05:00:21;16.90;99.90
43627;DHT22;29217;52.586;13.442;2023-09-19T05:02:50;16.90;99.90
43627;DHT22;29217;52.586;13.442;2023-09-19T05:05:17;16.90;99.90
43627;DHT22;29217;52.586;13.442;2023-09-19T05:07:45;16.80;99.90
43627;DHT22;29217;52.586;13.442;2023-09-19T05:10:11;16.80;99.90
43627;DHT22;29217;52.586;13.442;2023-09-19T05:12:38;16.80;99.90
43627;DHT22;29217;52.586;13.442;2023-09-19T05:15:04;16.80;99.90
43627;DHT22;29217;52.586;13.442;2023-09-19T05:17:30;16.80;99.90
43627;DHT22;29217;52.586;13.442;2023-09-19T05:19:57;16.80;99.90
43627;DHT22;29217;52.586;13.442;2023-09-19T05:22:25;16.70;99.90
43627;DHT22;29217;52.586;13.442;2023-09-19T05:24:51;16.80;99.90
43627;DHT22;29217;52.586;13.442;2023-09-19T05:27:18;16.70;99.90
43627;DHT22;29217;52.586;13.442;2023-09-19T05:29:46;16.60;99.90
43627;DHT22;29217;52.586;13.442;2023-09-19T05:32:12;16.60;99.90
43627;DHT22;29217;52.586;13.442;2023-09-19T05:34:38;16.60;99.90
43627;DHT22;29217;52.586;13.442;2023-09-19T05:37:05;16.60;99.90
43627;DHT22;29217;52.586;13.442;2023-09-19T05:39:33;16.60;99.90
43627;DHT22;29217;52.586;13.442;2023-09-19T05:41:58;16.50;99.90
43627;DHT22;29217;52.586;13.442;2023-09-19T05:44:25;16.50;99.90
43627;DHT22;29217;52.586;13.442;2023-09-19T05:46:51;16.40;99.90
43627;DHT22;29217;52.586;13.442;2023-09-19T05:49:17;16.40;99.90
43627;DHT22;29217;52.586;13.442;2023-09-19T05:51:42;16.40;99.90
43627;DHT22;29217;52.586;13.442;2023-09-19T05:54:08;16.40;99.90
43627;DHT22;29217;52.586;13.442;2023-09-19T05:56:34;16.50;99.90
43627;DHT22;29217;52.586;13.442;2023-09-19T05:59:00;16.50;99.90
43627;DHT22;29217;52.586;13.442;2023-09-19T06:01:25;16.50;99.90
43627;DHT22;29217;52.586;13.442;2023-09-19T06:03:52;16.50;99.90
43627;DHT22;29217;52.586;13.442;2023-09-19T06:06:18;16.50;99.90
43627;DHT22;29217;52.586;13.442;2023-09-19T06:08:44;16.50;99.90
43627;DHT22;29217;52.586;13.442;2023-09-19T06:11:10;16.50;99.90
43627;DHT22;29217;52.586;13.442;2023-09-19T06:13:36;16.50;99.90
43627;DHT22;29217;52.586;13.442;2023-09-19T06:16:05;16.50;99.90
43627;DHT22;29217;52.586;13.442;2023-09-19T06:18:31;16.50;99.90
43627;DHT22;29217;52.586;13.442;2023-09-19T06:20:59;16.60;99.90
43627;DHT22;29217;52.586;13.442;2023-09-19T06:23:25;16.60;99.90
43627;DHT22;29217;52.586;13.442;2023-09-19T06:25:52;16.60;99.90
43627;DHT22;29217;52.586;13.442;2023-09-19T06:28:18;16.70;99.90
43627;DHT22;29217;52.586;13.442;2023-09-19T06:30:49;16.70;99.90
43627;DHT22;29217;52.586;13.442;2023-09-19T06:33:15;16.70;99.90
43627;DHT22;29217;52.586;13.442;2023-09-19T06:35:40;16.80;99.90
43627;DHT22;29217;52.586;13.442;2023-09-19T06:38:07;16.80;99.90
43627;DHT22;29217;52.586;13.442;2023-09-19T06:40:34;16.90;99.90
43627;DHT22;29217;52.586;13.442;2023-09-19T06:42:59;16.90;99.90
43627;DHT22;29217;52.586;13.442;2023-09-19T06:45:27;17.00;99.90
43627;DHT22;29217;52.586;13.442;2023-09-19T06:47:52;17.00;99.90
43627;DHT22;29217;52.586;13.442;2023-09-19T06:50:23;17.10;99.90
43627;DHT22;29217;52.586;13.442;2023-09-19T06:52:50;17.20;99.90
43627;DHT22;29217;52.586;13.442;2023-09-19T06:55:17;17.30;99.90
43627;DHT22;29217;52.586;13.442;2023-09-19T06:57:48;17.40;99.90
43627;DHT22;29217;52.586;13.442;2023-09-19T07:00:14;17.40;99.90
43627;DHT22;29217;52.586;13.442;2023-09-19T07:03:06;17.60;99.90
43627;DHT22;29217;52.586;13.442;2023-09-19T07:05:37;17.60;99.90
43627;DHT22;29217;52.586;13.442;2023-09-19T07:08:07;17.80;99.90
43627;DHT22;29217;52.586;13.442;2023-09-19T07:10:34;17.90;99.90
43627;DHT22;29217;52.586;13.442;2023-09-19T07:13:02;17.90;99.90
43627;DHT22;29217;52.586;13.442;2023-09-19T07:15:29;18.10;99.90
43627;DHT22;29217;52.586;13.442;2023-09-19T07:17:56;18.10;99.90
43627;DHT22;29217;52.586;13.442;2023-09-19T07:20:23;18.20;99.90
43627;DHT22;29217;52.586;13.442;2023-09-19T07:22:50;18.20;99.90
43627;DHT22;29217;52.586;13.442;2023-09-19T07:25:16;18.20;99.90
43627;DHT22;29217;52.586;13.442;2023-09-19T07:27:42;18.20;99.90
43627;DHT22;29217;52.586;13.442;2023-09-19T07:30:09;18.20;99.90
43627;DHT22;29217;52.586;13.442;2023-09-19T07:32:35;18.20;99.90
43627;DHT22;29217;52.586;13.442;2023-09-19T07:35:02;18.20;99.90
43627;DHT22;29217;52.586;13.442;2023-09-19T07:37:29;18.20;99.90
43627;DHT22;29217;52.586;13.442;2023-09-19T07:39:56;18.10;99.90
43627;DHT22;29217;52.586;13.442;2023-09-19T07:42:22;18.10;99.90
43627;DHT22;29217;52.586;13.442;2023-09-19T07:44:47;18.10;99.90
43627;DHT22;29217;52.586;13.442;2023-09-19T07:47:16;18.10;99.90
43627;DHT22;29217;52.586;13.442;2023-09-19T07:49:42;18.10;99.90
43627;DHT22;29217;52.586;13.442;2023-09-19T07:52:09;18.00;99.90
43627;DHT22;29217;52.586;13.442;2023-09-19T07:54:35;18.00;99.90
43627;DHT22;29217;52.586;13.442;2023-09-19T07:57:02;18.00;99.90
43627;DHT22;29217;52.586;13.442;2023-09-19T07:59:28;18.10;99.90
43627;DHT22;29217;52.586;13.442;2023-09-19T08:01:53;18.20;99.90
43627;DHT22;29217;52.586;13.442;2023-09-19T08:04:19;18.30;99.90
43627;DHT22;29217;52.586;13.442;2023-09-19T08:06:45;18.30;99.90
43627;DHT22;29217;52.586;13.442;2023-09-19T08:09:11;18.40;99.90
43627;DHT22;29217;52.586;13.442;2023-09-19T08:11:39;18.40;99.90
43627;DHT22;29217;52.586;13.442;2023-09-19T08:14:05;18.40;99.90
43627;DHT22;29217;52.586;13.442;2023-09-19T08:16:33;18.40;99.90
43627;DHT22;29217;52.586;13.442;2023-09-19T08:18:58;18.40;99.90
43627;DHT22;29217;52.586;13.442;2023-09-19T08:21:24;18.40;99.90
43627;DHT22;29217;52.586;13.442;2023-09-19T08:23:51;18.30;99.90
43627;DHT22;29217;52.586;13.442;2023-09-19T08:26:16;18.20;99.90
43627;DHT22;29217;52.586;13.442;2023-09-19T08:28:42;18.10;99.90
43627;DHT22;29217;52.586;13.442;2023-09-19T08:31:08;18.10;99.90
43627;DHT22;29217;52.586;13.442;2023-09-19T08:33:35;18.10;99.90
43627;DHT22;29217;52.586;13.442;2023-09-19T08:36:04;18.10;99.90
43627;DHT22;29217;52.586;13.442;2023-09-19T08:38:34;18.10;99.90
43627;DHT22;29217;52.586;13.442;2023-09-19T08:41:04;18.20;99.90
43627;DHT22;29217;52.586;13.442;2023-09-19T08:43:30;18.20;99.90
43627;DHT22;29217;52.586;13.442;2023-09-19T08:48:34;18.20;99.90
43627;DHT22;29217;52.586;13.442;2023-09-19T08:56:07;18.40;99.90
43627;DHT22;29217;52.586;13.442;2023-09-19T09:01:15;18.40;99.90
43627;DHT22;29217;52.586;13.442;2023-09-19T09:03:42;18.50;99.90
43627;DHT22;29217;52.586;13.442;2023-09-19T09:06:14;18.60;99.90
43627;DHT22;29217;52.586;13.442;2023-09-19T09:08:41;18.60;99.90
43627;DHT22;29217;52.586;13.442;2023-09-19T09:11:07;18.50;99.90
43627;DHT22;29217;52.586;13.442;2023-09-19T09:13:35;18.40;99.90
43627;DHT22;29217;52.586;13.442;2023-09-19T09:16:01;18.50;99.90
43627;DHT22;29217;52.586;13.442;2023-09-19T09:18:28;18.60;99.90
43627;DHT22;29217;52.586;13.442;2023-09-19T09:20:55;18.70;99.90
43627;DHT22;29217;52.586;13.442;2023-09-19T09:23:21;18.70;99.90
43627;DHT22;29217;52.586;13.442;2023-09-19T09:25:54;18.70;99.90
43627;DHT22;29217;52.586;13.442;2023-09-19T09:28:22;18.70;99.90
43627;DHT22;29217;52.586;13.442;2023-09-19T09:30:48;18.70;99.90
43627;DHT22;29217;52.586;13.442;2023-09-19T09:33:14;18.80;99.90
43627;DHT22;29217;52.586;13.442;2023-09-19T09:36:00;18.80;99.90
43627;DHT22;29217;52.586;13.442;2023-09-19T09:38:49;18.70;99.90
43627;DHT22;29217;52.586;13.442;2023-09-19T09:41:15;18.60;99.90
43627;DHT22;29217;52.586;13.442;2023-09-19T09:43:53;18.50;99.90
43627;DHT22;29217;52.586;13.442;2023-09-19T09:46:20;18.40;99.90
43627;DHT22;29217;52.586;13.442;2023-09-19T09:49:04;18.50;99.90
43627;DHT22;29217;52.586;13.442;2023-09-19T09:51:42;18.70;99.90
43627;DHT22;29217;52.586;13.442;2023-09-19T09:54:12;18.90;99.90
43627;DHT22;29217;52.586;13.442;2023-09-19T09:56:57;18.90;99.90
43627;DHT22;29217;52.586;13.442;2023-09-19T09:59:55;18.90;99.90
43627;DHT22;29217;52.586;13.442;2023-09-19T10:02:35;18.90;99.90
43627;DHT22;29217;52.586;13.442;2023-09-19T10:05:15;19.00;99.90
43627;DHT22;29217;52.586;13.442;2023-09-19T10:07:54;18.90;99.90
43627;DHT22;29217;52.586;13.442;2023-09-19T10:10:35;18.70;99.90
43627;DHT22;29217;52.586;13.442;2023-09-19T10:13:07;18.70;99.90
43627;DHT22;29217;52.586;13.442;2023-09-19T10:15:38;18.80;99.90
43627;DHT22;29217;52.586;13.442;2023-09-19T10:18:07;18.80;99.90
43627;DHT22;29217;52.586;13.442;2023-09-19T10:20:45;18.70;99.90
43627;DHT22;29217;52.586;13.442;2023-09-19T10:23:11;18.70;99.90
43627;DHT22;29217;52.586;13.442;2023-09-19T10:25:42;18.70;99.90
43627;DHT22;29217;52.586;13.442;2023-09-19T10:28:13;18.80;99.90
43627;DHT22;29217;52.586;13.442;2023-09-19T10:30:46;19.20;99.90
43627;DHT22;29217;52.586;13.442;2023-09-19T10:33:20;19.50;99.90
43627;DHT22;29217;52.586;13.442;2023-09-19T10:35:49;19.50;99.90
43627;DHT22;29217;52.586;13.442;2023-09-19T10:38:22;19.70;99.90
43627;DHT22;29217;52.586;13.442;2023-09-19T10:40:53;19.60;99.90
43627;DHT22;29217;52.586;13.442;2023-09-19T10:43:21;19.80;99.90
43627;DHT22;29217;52.586;13.442;2023-09-19T10:45:50;19.70;99.90
43627;DHT22;29217;52.586;13.442;2023-09-19T10:48:18;19.60;99.90
43627;DHT22;29217;52.586;13.442;2023-09-19T10:53:17;19.80;99.90
43627;DHT22;29217;52.586;13.442;2023-09-19T10:55:50;19.70;99.90
43627;DHT22;29217;52.586;13.442;2023-09-19T10:58:31;19.80;99.90
43627;DHT22;29217;52.586;13.442;2023-09-19T11:01:04;20.10;99.90
43627;DHT22;29217;52.586;13.442;2023-09-19T11:03:38;20.30;99.90
43627;DHT22;29217;52.586;13.442;2023-09-19T11:06:15;20.50;99.90
43627;DHT22;29217;52.586;13.442;2023-09-19T11:08:55;20.60;99.90
43627;DHT22;29217;52.586;13.442;2023-09-19T11:30:47;20.40;99.90
43627;DHT22;29217;52.586;13.442;2023-09-19T11:33:24;20.50;99.90
43627;DHT22;29217;52.586;13.442;2023-09-19T11:46:12;21.50;99.90
43627;DHT22;29217;52.586;13.442;2023-09-19T11:48:43;22.00;99.90
43627;DHT22;29217;52.586;13.442;2023-09-19T11:51:14;22.50;99.90
43627;DHT22;29217;52.586;13.442;2023-09-19T11:53:53;22.50;99.90
43627;DHT22;29217;52.586;13.442;2023-09-19T11:56:21;22.80;99.90
43627;DHT22;29217;52.586;13.442;2023-09-19T11:58:50;22.80;99.90
43627;DHT22;29217;52.586;13.442;2023-09-19T12:01:28;22.60;99.90
43627;DHT22;29217;52.586;13.442;2023-09-19T12:03:56;22.20;99.90
43627;DHT22;29217;52.586;13.442;2023-09-19T12:06:24;21.80;99.90
43627;DHT22;29217;52.586;13.442;2023-09-19T12:08:50;21.60;99.90
43627;DHT22;29217;52.586;13.442;2023-09-19T12:11:20;21.30;99.90
43627;DHT22;29217;52.586;13.442;2023-09-19T12:13:47;21.20;99.90
43627;DHT22;29217;52.586;13.442;2023-09-19T12:16:18;21.40;99.90
43627;DHT22;29217;52.586;13.442;2023-09-19T12:18:47;21.70;99.90
43627;DHT22;29217;52.586;13.442;2023-09-19T12:21:29;21.60;99.90
43627;DHT22;29217;52.586;13.442;2023-09-19T12:26:30;21.70;99.90
43627;DHT22;29217;52.586;13.442;2023-09-19T12:29:03;21.90;99.90
43627;DHT22;29217;52.586;13.442;2023-09-19T12:31:30;22.00;99.90
43627;DHT22;29217;52.586;13.442;2023-09-19T12:34:01;22.00;99.90
43627;DHT22;29217;52.586;13.442;2023-09-19T12:36:27;21.80;99.90
43627;DHT22;29217;52.586;13.442;2023-09-19T12:38:56;21.90;99.90
43627;DHT22;29217;52.586;13.442;2023-09-19T12:41:25;21.80;99.90
43627;DHT22;29217;52.586;13.442;2023-09-19T12:43:54;21.50;99.90
43627;DHT22;29217;52.586;13.442;2023-09-19T12:46:23;21.50;99.90
43627;DHT22;29217;52.586;13.442;2023-09-19T12:49:16;21.30;99.90
43627;DHT22;29217;52.586;13.442;2023-09-19T12:51:49;21.20;99.90
43627;DHT22;29217;52.586;13.442;2023-09-19T12:54:14;21.40;99.90
43627;DHT22;29217;52.586;13.442;2023-09-19T12:56:43;21.40;99.90
43627;DHT22;29217;52.586;13.442;2023-09-19T12:59:14;21.50;99.90
43627;DHT22;29217;52.586;13.442;2023-09-19T13:01:41;21.40;99.90
43627;DHT22;29217;52.586;13.442;2023-09-19T13:04:20;21.20;99.90
43627;DHT22;29217;52.586;13.442;2023-09-19T13:06:52;21.10;99.90
43627;DHT22;29217;52.586;13.442;2023-09-19T13:09:19;21.00;99.90
43627;DHT22;29217;52.586;13.442;2023-09-19T13:11:46;21.00;99.90
43627;DHT22;29217;52.586;13.442;2023-09-19T13:14:18;21.00;99.90
43627;DHT22;29217;52.586;13.442;2023-09-19T13:17:03;20.90;99.90
43627;DHT22;29217;52.586;13.442;2023-09-19T13:22:43;20.80;99.90
43627;DHT22;29217;52.586;13.442;2023-09-19T13:25:16;20.60;99.90
43627;DHT22;29217;52.586;13.442;2023-09-19T13:27:50;20.60;99.90
43627;DHT22;29217;52.586;13.442;2023-09-19T13:30:18;20.50;99.90
43627;DHT22;29217;52.586;13.442;2023-09-19T13:32:44;20.50;99.90
43627;DHT22;29217;52.586;13.442;2023-09-19T13:35:12;20.50;99.90
43627;DHT22;29217;52.586;13.442;2023-09-19T13:37:39;20.50;99.90
43627;DHT22;29217;52.586;13.442;2023-09-19T13:40:12;20.60;99.90
43627;DHT22;29217;52.586;13.442;2023-09-19T13:42:38;20.80;99.90
43627;DHT22;29217;52.586;13.442;2023-09-19T13:45:05;20.70;99.90
43627;DHT22;29217;52.586;13.442;2023-09-19T13:47:32;20.60;99.90
43627;DHT22;29217;52.586;13.442;2023-09-19T13:49:58;20.60;99.90
43627;DHT22;29217;52.586;13.442;2023-09-19T13:52:24;20.50;99.90
43627;DHT22;29217;52.586;13.442;2023-09-19T13:54:53;20.40;99.90
43627;DHT22;29217;52.586;13.442;2023-09-19T13:57:19;20.40;99.90
43627;DHT22;29217;52.586;13.442;2023-09-19T13:59:44;20.40;99.90
43627;DHT22;29217;52.586;13.442;2023-09-19T14:02:10;20.50;99.90
43627;DHT22;29217;52.586;13.442;2023-09-19T14:04:35;20.40;99.90
43627;DHT22;29217;52.586;13.442;2023-09-19T14:07:01;20.50;99.90
43627;DHT22;29217;52.586;13.442;2023-09-19T14:09:27;20.50;99.90
43627;DHT22;29217;52.586;13.442;2023-09-19T14:11:53;20.70;99.90
43627;DHT22;29217;52.586;13.442;2023-09-19T14:14:19;20.70;99.90
43627;DHT22;29217;52.586;13.442;2023-09-19T14:16:46;20.60;99.90
43627;DHT22;29217;52.586;13.442;2023-09-19T14:19:11;20.60;99.90
43627;DHT22;29217;52.586;13.442;2023-09-19T14:21:37;20.60;99.90
43627;DHT22;29217;52.586;13.442;2023-09-19T14:24:04;20.70;99.90
43627;DHT22;29217;52.586;13.442;2023-09-19T14:26:37;20.80;99.90
43627;DHT22;29217;52.586;13.442;2023-09-19T14:29:03;20.80;99.90
43627;DHT22;29217;52.586;13.442;2023-09-19T14:31:28;20.80;99.90
43627;DHT22;29217;52.586;13.442;2023-09-19T14:33:55;20.90;99.90
43627;DHT22;29217;52.586;13.442;2023-09-19T14:36:25;20.90;99.90
43627;DHT22;29217;52.586;13.442;2023-09-19T14:38:53;20.90;99.90
43627;DHT22;29217;52.586;13.442;2023-09-19T14:41:22;20.80;99.90
43627;DHT22;29217;52.586;13.442;2023-09-19T14:43:50;20.70;99.90
43627;DHT22;29217;52.586;13.442;2023-09-19T14:46:15;20.60;99.90
43627;DHT22;29217;52.586;13.442;2023-09-19T14:48:41;20.60;99.90
43627;DHT22;29217;52.586;13.442;2023-09-19T14:51:08;20.50;99.90
43627;DHT22;29217;52.586;13.442;2023-09-19T14:53:37;20.50;99.90
43627;DHT22;29217;52.586;13.442;2023-09-19T14:56:04;20.50;99.90
43627;DHT22;29217;52.586;13.442;2023-09-19T14:58:31;20.50;99.90
43627;DHT22;29217;52.586;13.442;2023-09-19T15:01:07;20.50;99.90
43627;DHT22;29217;52.586;13.442;2023-09-19T15:03:34;20.40;99.90
43627;DHT22;29217;52.586;13.442;2023-09-19T15:06:04;20.40;99.90
43627;DHT22;29217;52.586;13.442;2023-09-19T15:08:30;20.40;99.90
43627;DHT22;29217;52.586;13.442;2023-09-19T15:10:56;20.40;99.90
43627;DHT22;29217;52.586;13.442;2023-09-19T15:13:24;20.40;99.90
43627;DHT22;29217;52.586;13.442;2023-09-19T15:16:07;20.40;99.90
43627;DHT22;29217;52.586;13.442;2023-09-19T15:18:37;20.30;99.90
43627;DHT22;29217;52.586;13.442;2023-09-19T15:21:10;20.20;99.90
43627;DHT22;29217;52.586;13.442;2023-09-19T15:23:37;20.20;99.90
43627;DHT22;29217;52.586;13.442;2023-09-19T15:26:13;20.20;99.90
43627;DHT22;29217;52.586;13.442;2023-09-19T15:28:42;20.20;99.90
43627;DHT22;29217;52.586;13.442;2023-09-19T15:31:12;20.20;99.90
43627;DHT22;29217;52.586;13.442;2023-09-19T15:33:39;20.10;99.90
43627;DHT22;29217;52.586;13.442;2023-09-19T15:36:09;20.20;99.90
43627;DHT22;29217;52.586;13.442;2023-09-19T15:38:55;20.10;99.90
43627;DHT22;29217;52.586;13.442;2023-09-19T15:41:22;20.10;99.90
43627;DHT22;29217;52.586;13.442;2023-09-19T15:43:48;20.10;99.90
43627;DHT22;29217;52.586;13.442;2023-09-19T15:46:14;20.10;99.90
43627;DHT22;29217;52.586;13.442;2023-09-19T15:48:41;20.00;99.90
43627;DHT22;29217;52.586;13.442;2023-09-19T15:51:06;20.00;99.90
43627;DHT22;29217;52.586;13.442;2023-09-19T15:53:47;20.00;99.90
43627;DHT22;29217;52.586;13.442;2023-09-19T15:56:16;20.00;99.90
43627;DHT22;29217;52.586;13.442;2023-09-19T15:58:45;20.00;99.90
43627;DHT22;29217;52.586;13.442;2023-09-19T16:01:11;20.00;99.90
43627;DHT22;29217;52.586;13.442;2023-09-19T16:03:38;20.00;99.90
43627;DHT22;29217;52.586;13.442;2023-09-19T16:06:17;20.00;99.90
43627;DHT22;29217;52.586;13.442;2023-09-19T16:08:45;19.90;99.90
43627;DHT22;29217;52.586;13.442;2023-09-19T16:11:12;19.90;99.90
43627;DHT22;29217;52.586;13.442;2023-09-19T16:13:39;19.90;99.90
43627;DHT22;29217;52.586;13.442;2023-09-19T16:16:08;19.90;99.90
43627;DHT22;29217;52.586;13.442;2023-09-19T16:18:38;19.80;99.90
43627;DHT22;29217;52.586;13.442;2023-09-19T16:21:05;19.70;99.90
43627;DHT22;29217;52.586;13.442;2023-09-19T16:23:31;19.70;99.90